createdAt,value
2019-03-21T00:00:38.415Z,102273.00
2019-03-21T00:03:07.463Z,102284.00
2019-03-21T00:05:37.466Z,102282.00
2019-03-21T00:08:08.784Z,102274.00
2019-03-21T00:11:39.151Z,102281.00
2019-03-21T00:14:54.078Z,102289.00
2019-03-21T00:17:36.554Z,102296.00
2019-03-21T00:20:10.106Z,102298.00
2019-03-21T00:22:38.948Z,102301.00
2019-03-21T00:25:09.180Z,102305.00
2019-03-21T00:27:38.036Z,102307.00
2019-03-21T00:30:12.804Z,102300.00
2019-03-21T00:32:41.701Z,102300.00
2019-03-21T00:35:11.537Z,102301.00
2019-03-21T00:37:40.317Z,102299.00
2019-03-21T00:40:13.524Z,102305.00
2019-03-21T00:42:42.333Z,102300.00
2019-03-21T00:45:14.013Z,102290.00
2019-03-21T00:47:42.874Z,102297.00
2019-03-21T00:50:14.211Z,102291.00
2019-03-21T00:52:43.797Z,102295.00
2019-03-21T00:55:12.752Z,102290.00
2019-03-21T00:57:41.541Z,102284.00
2019-03-21T01:00:16.400Z,102285.00
2019-03-21T01:02:45.251Z,102282.00
2019-03-21T01:05:14.505Z,102289.00
2019-03-21T01:07:43.279Z,102288.00
2019-03-21T01:10:14.284Z,102284.00
2019-03-21T01:12:43.210Z,102283.00
2019-03-21T01:15:12.100Z,102284.00
2019-03-21T01:17:40.933Z,102277.00
2019-03-21T01:20:12.277Z,102280.00
2019-03-21T01:22:41.295Z,102288.00
2019-03-21T01:25:14.634Z,102290.00
2019-03-21T01:27:43.515Z,102290.00
2019-03-21T01:30:14.220Z,102281.00
2019-03-21T01:32:43.127Z,102288.00
2019-03-21T01:35:12.152Z,102278.00
2019-03-21T01:37:40.983Z,102275.00
2019-03-21T01:40:13.912Z,102276.00
2019-03-21T01:42:43.831Z,102275.00
2019-03-21T01:45:16.240Z,102277.00
2019-03-21T01:47:45.094Z,102273.00
2019-03-21T01:50:15.372Z,102272.00
2019-03-21T01:52:44.202Z,102282.00
2019-03-21T01:55:13.175Z,102293.00
2019-03-21T01:57:41.999Z,102278.00
2019-03-21T02:00:19.004Z,102279.00
2019-03-21T02:02:49.493Z,102272.00
2019-03-21T02:05:18.340Z,102263.00
2019-03-21T02:07:47.083Z,102273.00
2019-03-21T02:10:16.038Z,102265.00
2019-03-21T02:12:44.763Z,102267.00
2019-03-21T02:15:13.738Z,102269.00
2019-03-21T02:17:42.448Z,102265.00
2019-03-21T02:20:12.806Z,102273.00
2019-03-21T02:22:41.490Z,102279.00
2019-03-21T02:25:17.544Z,102264.00
2019-03-21T02:27:46.308Z,102274.00
2019-03-21T02:30:18.980Z,102273.00
2019-03-21T02:32:50.012Z,102280.00
2019-03-21T02:35:19.643Z,102271.00
2019-03-21T02:37:48.445Z,102280.00
2019-03-21T02:40:18.797Z,102284.00
2019-03-21T02:42:48.579Z,102277.00
2019-03-21T02:45:17.525Z,102271.00
2019-03-21T02:47:46.344Z,102280.00
2019-03-21T02:50:23.050Z,102275.00
2019-03-21T02:52:51.966Z,102288.00
2019-03-21T02:55:21.047Z,102282.00
2019-03-21T02:57:49.895Z,102277.00
2019-03-21T03:00:20.973Z,102278.00
2019-03-21T03:02:52.018Z,102286.00
2019-03-21T03:05:23.510Z,102277.00
2019-03-21T03:07:52.383Z,102280.00
2019-03-21T03:10:25.818Z,102275.00
2019-03-21T03:12:54.607Z,102283.00
2019-03-21T03:15:24.817Z,102268.00
2019-03-21T03:17:54.509Z,102277.00
2019-03-21T03:20:23.241Z,102276.00
2019-03-21T03:22:52.036Z,102276.00
2019-03-21T03:25:21.222Z,102269.00
2019-03-21T03:27:51.710Z,102271.00
2019-03-21T03:30:22.036Z,102260.00
2019-03-21T03:32:50.775Z,102253.00
2019-03-21T03:35:19.535Z,102254.00
2019-03-21T03:37:48.295Z,102259.00
2019-03-21T03:40:21.760Z,102268.00
2019-03-21T03:42:51.627Z,102258.00
2019-03-21T03:45:36.560Z,102261.00
2019-03-21T03:47:54.850Z,102266.00
2019-03-21T03:50:23.715Z,102260.00
2019-03-21T03:52:52.509Z,102263.00
2019-03-21T03:55:21.191Z,102259.00
2019-03-21T03:57:50.519Z,102270.00
2019-03-21T04:00:20.641Z,102272.00
2019-03-21T04:02:50.907Z,102272.00
2019-03-21T04:05:20.549Z,102271.00
2019-03-21T04:07:49.298Z,102287.00
2019-03-21T04:10:24.846Z,102287.00
2019-03-21T04:12:53.662Z,102286.00
2019-03-21T04:15:22.473Z,102290.00
2019-03-21T04:17:52.173Z,102283.00
2019-03-21T04:20:23.677Z,102294.00
2019-03-21T04:22:52.458Z,102303.00
2019-03-21T04:25:29.320Z,102283.00
2019-03-21T04:27:58.089Z,102294.00
2019-03-21T04:30:27.756Z,102292.00
2019-03-21T04:32:56.463Z,102299.00
2019-03-21T04:35:25.246Z,102302.00
2019-03-21T04:37:54.325Z,102294.00
2019-03-21T04:40:23.060Z,102293.00
2019-03-21T04:42:51.819Z,102297.00
2019-03-21T04:45:20.696Z,102293.00
2019-03-21T04:47:50.529Z,102291.00
2019-03-21T04:50:22.773Z,102295.00
2019-03-21T04:52:51.485Z,102291.00
2019-03-21T04:55:20.245Z,102298.00
2019-03-21T04:57:49.018Z,102295.00
2019-03-21T05:00:21.928Z,102291.00
2019-03-21T05:02:52.429Z,102298.00
2019-03-21T05:05:21.387Z,102292.00
2019-03-21T05:07:50.210Z,102295.00
2019-03-21T05:10:19.031Z,102293.00
2019-03-21T05:12:47.809Z,102286.00
2019-03-21T05:15:21.034Z,102290.00
2019-03-21T05:17:50.358Z,102287.00
2019-03-21T05:20:22.474Z,102289.00
2019-03-21T05:22:51.320Z,102298.00
2019-03-21T05:25:19.961Z,102298.00
2019-03-21T05:27:48.755Z,102300.00
2019-03-21T05:30:28.612Z,102308.00
2019-03-21T05:32:57.490Z,102310.00
2019-03-21T05:35:26.261Z,102310.00
2019-03-21T05:37:55.374Z,102302.00
2019-03-21T05:40:24.153Z,102297.00
2019-03-21T05:43:07.411Z,102294.00
2019-03-21T05:45:36.169Z,102299.00
2019-03-21T05:48:04.925Z,102298.00
2019-03-21T05:50:33.806Z,102308.00
2019-03-21T05:53:02.598Z,102304.00
2019-03-21T05:55:31.306Z,102306.00
2019-03-21T05:58:00.143Z,102310.00
2019-03-21T06:00:35.050Z,102316.00
2019-03-21T06:03:05.586Z,102306.00
2019-03-21T06:05:34.504Z,102306.00
2019-03-21T06:08:26.527Z,102312.00
2019-03-21T06:10:55.439Z,102323.00
2019-03-21T06:13:24.195Z,102314.00
2019-03-21T06:15:52.919Z,102320.00
2019-03-21T06:19:03.708Z,102309.00
2019-03-21T06:22:37.223Z,102319.00
2019-03-21T06:25:58.334Z,102329.00
2019-03-21T06:28:27.274Z,102327.00
2019-03-21T06:30:55.978Z,102325.00
2019-03-21T06:33:24.758Z,102330.00
2019-03-21T06:35:53.463Z,102332.00
2019-03-21T06:38:22.261Z,102331.00
2019-03-21T06:40:51.039Z,102336.00
2019-03-21T06:43:19.839Z,102334.00
2019-03-21T06:45:48.547Z,102333.00
2019-03-21T06:48:17.279Z,102336.00
2019-03-21T06:50:46.025Z,102339.00
2019-03-21T06:53:14.766Z,102332.00
2019-03-21T06:55:43.569Z,102340.00
2019-03-21T06:58:12.378Z,102330.00
2019-03-21T07:00:41.324Z,102331.00
2019-03-21T07:03:10.056Z,102336.00
2019-03-21T07:05:39.099Z,102329.00
2019-03-21T07:08:07.923Z,102332.00
2019-03-21T07:10:36.691Z,102341.00
2019-03-21T07:13:05.667Z,102333.00
2019-03-21T07:15:34.475Z,102337.00
2019-03-21T07:18:03.580Z,102335.00
2019-03-21T07:20:32.364Z,102338.00
2019-03-21T07:23:01.041Z,102344.00
2019-03-21T07:25:29.925Z,102340.00
2019-03-21T07:27:58.717Z,102343.00
2019-03-21T07:30:27.529Z,102334.00
2019-03-21T07:32:56.275Z,102332.00
2019-03-21T07:35:25.088Z,102338.00
2019-03-21T07:37:53.787Z,102344.00
2019-03-21T07:40:23.599Z,102348.00
2019-03-21T07:42:52.374Z,102348.00
2019-03-21T07:45:21.976Z,102336.00
2019-03-21T07:47:50.761Z,102344.00
2019-03-21T07:50:19.605Z,102337.00
2019-03-21T07:52:48.340Z,102347.00
2019-03-21T07:55:17.930Z,102344.00
2019-03-21T07:57:47.665Z,102334.00
2019-03-21T08:00:17.592Z,102339.00
2019-03-21T08:02:46.313Z,102336.00
2019-03-21T08:05:16.291Z,102342.00
2019-03-21T08:07:45.126Z,102336.00
2019-03-21T08:10:13.943Z,102341.00
2019-03-21T08:12:43.127Z,102332.00
2019-03-21T08:15:12.261Z,102332.00
2019-03-21T08:17:41.050Z,102329.00
2019-03-21T08:20:10.679Z,102324.00
2019-03-21T08:22:39.510Z,102335.00
2019-03-21T08:25:08.945Z,102328.00
2019-03-21T08:27:37.824Z,102320.00
2019-03-21T08:30:12.270Z,102324.00
2019-03-21T08:32:41.076Z,102326.00
2019-03-21T08:35:09.813Z,102324.00
2019-03-21T08:37:38.556Z,102332.00
2019-03-21T08:40:07.315Z,102333.00
2019-03-21T08:42:36.119Z,102329.00
2019-03-21T08:45:05.554Z,102341.00
2019-03-21T08:47:36.973Z,102333.00
2019-03-21T08:50:05.802Z,102331.00
2019-03-21T08:52:34.672Z,102336.00
2019-03-21T08:55:03.671Z,102333.00
2019-03-21T08:57:32.385Z,102328.00
2019-03-21T09:00:01.245Z,102324.00
2019-03-21T09:02:32.051Z,102332.00
2019-03-21T09:05:01.000Z,102330.00
2019-03-21T09:07:29.860Z,102327.00
2019-03-21T09:09:58.532Z,102332.00
2019-03-21T09:12:27.285Z,102320.00
2019-03-21T09:14:56.001Z,102323.00
2019-03-21T09:17:24.808Z,102320.00
2019-03-21T09:19:53.605Z,102313.00
2019-03-21T09:22:22.488Z,102320.00
2019-03-21T09:24:51.197Z,102320.00
2019-03-21T09:27:19.865Z,102312.00
2019-03-21T09:29:53.589Z,102319.00
2019-03-21T09:32:19.441Z,102315.00
2019-03-21T09:34:48.285Z,102304.00
2019-03-21T09:37:17.115Z,102311.00
2019-03-21T09:39:45.982Z,102318.00
2019-03-21T09:42:14.801Z,102309.00
2019-03-21T09:44:43.973Z,102306.00
2019-03-21T09:47:12.679Z,102308.00
2019-03-21T09:49:41.638Z,102303.00
2019-03-21T09:52:10.442Z,102307.00
2019-03-21T09:54:39.414Z,102305.00
2019-03-21T09:57:08.206Z,102309.00
2019-03-21T09:59:37.063Z,102293.00
2019-03-21T10:02:05.763Z,102293.00
2019-03-21T10:04:34.780Z,102292.00
2019-03-21T10:07:03.683Z,102290.00
2019-03-21T10:09:32.487Z,102285.00
2019-03-21T10:12:01.253Z,102294.00
2019-03-21T10:14:30.036Z,102283.00
2019-03-21T10:16:58.807Z,102294.00
2019-03-21T10:19:27.590Z,102292.00
2019-03-21T10:21:56.703Z,102292.00
2019-03-21T10:24:25.441Z,102289.00
2019-03-21T10:26:54.245Z,102282.00
2019-03-21T10:29:23.158Z,102281.00
2019-03-21T10:31:51.952Z,102279.00
2019-03-21T10:34:21.529Z,102285.00
2019-03-21T10:36:51.572Z,102282.00
2019-03-21T10:39:21.698Z,102284.00
2019-03-21T10:41:50.577Z,102278.00
2019-03-21T10:44:19.334Z,102270.00
2019-03-21T10:46:48.052Z,102275.00
2019-03-21T10:49:16.761Z,102278.00
2019-03-21T10:51:54.416Z,102273.00
2019-03-21T10:54:18.002Z,102274.00
2019-03-21T10:56:46.665Z,102263.00
2019-03-21T10:59:15.469Z,102265.00
2019-03-21T11:01:44.205Z,102261.00
2019-03-21T11:04:12.975Z,102261.00
2019-03-21T11:06:41.797Z,102259.00
2019-03-21T11:09:10.679Z,102255.00
2019-03-21T11:11:39.520Z,102257.00
2019-03-21T11:14:08.636Z,102248.00
2019-03-21T11:16:38.455Z,102250.00
2019-03-21T11:19:07.249Z,102246.00
2019-03-21T11:21:36.071Z,102246.00
2019-03-21T11:24:04.961Z,102244.00
2019-03-21T11:26:34.832Z,102245.00
2019-03-21T11:29:04.699Z,102244.00
2019-03-21T11:31:33.424Z,102228.00
2019-03-21T11:34:02.257Z,102234.00
2019-03-21T11:36:38.192Z,102232.00
2019-03-21T11:39:02.309Z,102228.00
2019-03-21T11:41:32.454Z,102224.00
2019-03-21T11:44:01.367Z,102224.00
2019-03-21T11:46:30.170Z,102211.00
2019-03-21T11:48:59.242Z,102214.00
2019-03-21T11:51:28.246Z,102209.00
2019-03-21T11:53:57.183Z,102210.00
2019-03-21T11:56:26.078Z,102201.00
2019-03-21T11:58:54.844Z,102195.00
2019-03-21T12:01:23.602Z,102199.00
2019-03-21T12:03:52.446Z,102188.00
2019-03-21T12:06:22.216Z,102191.00
2019-03-21T12:08:51.092Z,102189.00
2019-03-21T12:11:21.248Z,102177.00
2019-03-21T12:13:50.315Z,102181.00
2019-03-21T12:16:19.166Z,102171.00
2019-03-21T12:18:48.023Z,102170.00
2019-03-21T12:21:16.827Z,102174.00
2019-03-21T12:23:45.677Z,102175.00
2019-03-21T12:26:14.446Z,102158.00
2019-03-21T12:28:43.307Z,102164.00
2019-03-21T12:31:12.084Z,102160.00
2019-03-21T12:33:41.019Z,102154.00
2019-03-21T12:36:09.899Z,102150.00
2019-03-21T12:38:38.635Z,102144.00
2019-03-21T12:41:07.410Z,102140.00
2019-03-21T12:43:37.889Z,102138.00
2019-03-21T12:46:06.969Z,102126.00
2019-03-21T12:48:35.819Z,102139.00
2019-03-21T12:51:05.370Z,102143.00
2019-03-21T12:53:34.149Z,102134.00
2019-03-21T12:56:03.139Z,102125.00
2019-03-21T12:58:31.935Z,102127.00
2019-03-21T13:01:01.049Z,102119.00
2019-03-21T13:03:29.942Z,102127.00
2019-03-21T13:05:58.862Z,102110.00
2019-03-21T13:08:33.702Z,102107.00
2019-03-21T13:11:00.786Z,102100.00
2019-03-21T13:13:29.132Z,102102.00
2019-03-21T13:15:58.074Z,102100.00
2019-03-21T13:18:27.270Z,102102.00
2019-03-21T13:20:56.157Z,102098.00
2019-03-21T13:23:24.996Z,102096.00
2019-03-21T13:25:53.767Z,102100.00
2019-03-21T13:28:23.951Z,102081.00
2019-03-21T13:30:52.774Z,102087.00
2019-03-21T13:33:22.559Z,102079.00
2019-03-21T13:35:53.412Z,102078.00
2019-03-21T13:38:22.402Z,102071.00
2019-03-21T13:40:52.491Z,102071.00
2019-03-21T13:43:24.296Z,102061.00
2019-03-21T13:45:53.287Z,102068.00
2019-03-21T13:48:22.414Z,102063.00
2019-03-21T13:50:51.366Z,102062.00
2019-03-21T13:53:20.247Z,102066.00
2019-03-21T13:55:49.232Z,102061.00
2019-03-21T13:58:18.007Z,102054.00
2019-03-21T14:00:47.119Z,102047.00
2019-03-21T14:03:24.605Z,102045.00
2019-03-21T14:05:46.653Z,102041.00
2019-03-21T14:08:15.479Z,102046.00
2019-03-21T14:10:44.759Z,102032.00
2019-03-21T14:13:13.747Z,102023.00
2019-03-21T14:15:42.934Z,102025.00
2019-03-21T14:18:11.776Z,102021.00
2019-03-21T14:20:40.592Z,102011.00
2019-03-21T14:23:16.999Z,102020.00
2019-03-21T14:25:40.674Z,102016.00
2019-03-21T14:28:09.407Z,102012.00
2019-03-21T14:30:38.121Z,102010.00
2019-03-21T14:33:08.343Z,102004.00
2019-03-21T14:35:37.294Z,102010.00
2019-03-21T14:38:06.526Z,102011.00
2019-03-21T14:40:35.393Z,101999.00
2019-03-21T14:43:04.316Z,101995.00
2019-03-21T14:45:33.520Z,102001.00
2019-03-21T14:48:02.392Z,101994.00
2019-03-21T14:50:31.181Z,101998.00
2019-03-21T14:52:59.900Z,102009.00
2019-03-21T14:55:31.777Z,101990.00
2019-03-21T14:58:00.652Z,102001.00
2019-03-21T15:00:29.454Z,102010.00
2019-03-21T15:02:58.339Z,102005.00
2019-03-21T15:05:27.017Z,102002.00
2019-03-21T15:07:55.703Z,101994.00
2019-03-21T15:10:24.694Z,101996.00
2019-03-21T15:12:53.437Z,101994.00
2019-03-21T15:15:22.148Z,101987.00
2019-03-21T15:17:50.951Z,101975.00
2019-03-21T15:20:19.920Z,101986.00
2019-03-21T15:22:48.736Z,101978.00
2019-03-21T15:25:17.454Z,101981.00
2019-03-21T15:27:46.223Z,101980.00
2019-03-21T15:30:17.213Z,101982.00
2019-03-21T15:32:46.186Z,101978.00
2019-03-21T15:35:15.946Z,101984.00
2019-03-21T15:37:44.744Z,101972.00
2019-03-21T15:40:14.258Z,101984.00
2019-03-21T15:42:43.199Z,101978.00
2019-03-21T15:45:22.718Z,101972.00
2019-03-21T15:47:47.228Z,101967.00
2019-03-21T15:50:47.781Z,101971.00
2019-03-21T15:53:16.558Z,101971.00
2019-03-21T15:55:45.365Z,101964.00
2019-03-21T15:58:14.269Z,101972.00
2019-03-21T16:00:43.233Z,101961.00
2019-03-21T16:03:12.694Z,101966.00
2019-03-21T16:05:42.060Z,101968.00
2019-03-21T16:08:10.933Z,101967.00
2019-03-21T16:10:39.692Z,101964.00
2019-03-21T16:13:09.919Z,101961.00
2019-03-21T16:15:38.999Z,101962.00
2019-03-21T16:18:07.877Z,101949.00
2019-03-21T16:20:37.032Z,101959.00
2019-03-21T16:23:06.200Z,101956.00
2019-03-21T16:25:35.176Z,101949.00
2019-03-21T16:28:04.120Z,101957.00
2019-03-21T16:30:33.159Z,101955.00
2019-03-21T16:33:01.990Z,101956.00
2019-03-21T16:35:30.837Z,101947.00
2019-03-21T16:37:59.912Z,101952.00
2019-03-21T16:40:29.655Z,101944.00
2019-03-21T16:42:58.680Z,101941.00
2019-03-21T16:45:27.439Z,101946.00
2019-03-21T16:47:56.303Z,101941.00
2019-03-21T16:50:25.061Z,101943.00
2019-03-21T16:52:53.866Z,101939.00
2019-03-21T16:55:22.618Z,101942.00
2019-03-21T16:57:51.351Z,101942.00
2019-03-21T17:00:20.360Z,101955.00
2019-03-21T17:02:49.153Z,101950.00
2019-03-21T17:05:18.008Z,101949.00
2019-03-21T17:07:46.807Z,101949.00
2019-03-21T17:10:15.897Z,101952.00
2019-03-21T17:12:44.655Z,101950.00
2019-03-21T17:15:14.236Z,101949.00
2019-03-21T17:17:43.080Z,101944.00
2019-03-21T17:20:12.034Z,101950.00
2019-03-21T17:22:40.963Z,101936.00
2019-03-21T17:25:09.793Z,101943.00
2019-03-21T17:27:39.631Z,101946.00
2019-03-21T17:30:09.876Z,101948.00
2019-03-21T17:32:38.686Z,101953.00
2019-03-21T17:35:07.742Z,101951.00
2019-03-21T17:37:36.608Z,101955.00
2019-03-21T17:40:06.699Z,101963.00
2019-03-21T17:42:35.540Z,101963.00
2019-03-21T17:45:08.573Z,101956.00
2019-03-21T17:47:37.507Z,101960.00
2019-03-21T17:50:07.875Z,101961.00
2019-03-21T17:52:36.743Z,101960.00
2019-03-21T17:55:06.260Z,101964.00
2019-03-21T17:57:36.102Z,101967.00
2019-03-21T18:00:11.096Z,101971.00
2019-03-21T18:02:40.034Z,101966.00
2019-03-21T18:05:09.149Z,101961.00
2019-03-21T18:07:38.175Z,101970.00
2019-03-21T18:10:10.267Z,101975.00
2019-03-21T18:12:39.127Z,101964.00
2019-03-21T18:15:08.447Z,101970.00
2019-03-21T18:17:37.293Z,101969.00
2019-03-21T18:20:06.583Z,101971.00
2019-03-21T18:22:35.439Z,101964.00
2019-03-21T18:25:04.887Z,101974.00
2019-03-21T18:27:34.018Z,101985.00
2019-03-21T18:30:03.935Z,101980.00
2019-03-21T18:32:33.070Z,101975.00
2019-03-21T18:35:02.028Z,101984.00
2019-03-21T18:37:31.102Z,101981.00
2019-03-21T18:39:59.973Z,101982.00
2019-03-21T18:42:28.795Z,101987.00
2019-03-21T18:44:57.732Z,101986.00
2019-03-21T18:47:26.625Z,101992.00
2019-03-21T18:49:55.605Z,101990.00
2019-03-21T18:52:24.461Z,101994.00
2019-03-21T18:55:05.675Z,101991.00
2019-03-21T18:57:25.961Z,101993.00
2019-03-21T18:59:55.044Z,101989.00
2019-03-21T19:02:23.955Z,101999.00
2019-03-21T19:04:52.863Z,101987.00
2019-03-21T19:07:21.809Z,101992.00
2019-03-21T19:09:51.006Z,101987.00
2019-03-21T19:12:19.968Z,101978.00
2019-03-21T19:14:49.142Z,101976.00
2019-03-21T19:17:18.121Z,101987.00
2019-03-21T19:19:49.821Z,101981.00
2019-03-21T19:22:18.871Z,101992.00
2019-03-21T19:24:47.942Z,101991.00
2019-03-21T19:27:17.046Z,102003.00
2019-03-21T19:29:45.963Z,101996.00
2019-03-21T19:32:15.089Z,102005.00
2019-03-21T19:34:44.121Z,101997.00
2019-03-21T19:37:13.360Z,101997.00
2019-03-21T19:39:42.269Z,102002.00
2019-03-21T19:42:11.296Z,102001.00
2019-03-21T19:44:40.234Z,102002.00
2019-03-21T19:47:09.337Z,101998.00
2019-03-21T19:49:38.863Z,102004.00
2019-03-21T19:52:07.984Z,102012.00
2019-03-21T19:54:36.933Z,102002.00
2019-03-21T19:57:05.829Z,102004.00
2019-03-21T19:59:35.000Z,101999.00
2019-03-21T20:02:03.961Z,101993.00
2019-03-21T20:04:33.488Z,101995.00
2019-03-21T20:07:02.557Z,102003.00
2019-03-21T20:09:31.488Z,101998.00
2019-03-21T20:12:00.805Z,102006.00
2019-03-21T20:14:29.756Z,102004.00
2019-03-21T20:16:58.668Z,102014.00
2019-03-21T20:19:27.787Z,102005.00
2019-03-21T20:21:56.869Z,102010.00
2019-03-21T20:24:25.959Z,102006.00
2019-03-21T20:26:55.031Z,102015.00
2019-03-21T20:29:24.274Z,102012.00
2019-03-21T20:31:53.184Z,102019.00
2019-03-21T20:34:22.606Z,102017.00
2019-03-21T20:36:51.434Z,102015.00
2019-03-21T20:39:20.626Z,102029.00
2019-03-21T20:41:49.623Z,102019.00
2019-03-21T20:44:18.668Z,102015.00
2019-03-21T20:46:47.622Z,102019.00
2019-03-21T20:49:16.571Z,102019.00
2019-03-21T20:51:45.709Z,102011.00
2019-03-21T20:54:14.745Z,102011.00
2019-03-21T20:56:43.961Z,102013.00
2019-03-21T20:59:12.959Z,102009.00
2019-03-21T21:01:41.942Z,102011.00
2019-03-21T21:04:10.890Z,102001.00
2019-03-21T21:06:39.852Z,102018.00
2019-03-21T21:09:09.033Z,102012.00
2019-03-21T21:11:38.038Z,102018.00
2019-03-21T21:14:07.407Z,102014.00
2019-03-21T21:16:36.379Z,102013.00
2019-03-21T21:19:06.475Z,102014.00
2019-03-21T21:21:35.725Z,102010.00
2019-03-21T21:24:04.748Z,102014.00
2019-03-21T21:26:33.861Z,102019.00
2019-03-21T21:29:02.834Z,102013.00
2019-03-21T21:31:32.005Z,102010.00
2019-03-21T21:34:00.980Z,102007.00
2019-03-21T21:36:29.956Z,102018.00
2019-03-21T21:38:59.049Z,102008.00
2019-03-21T21:41:28.094Z,102011.00
2019-03-21T21:43:57.951Z,102001.00
2019-03-21T21:46:31.944Z,101998.00
2019-03-21T21:49:01.083Z,102004.00
2019-03-21T21:51:30.038Z,102004.00
2019-03-21T21:53:59.139Z,101997.00
2019-03-21T21:56:28.328Z,101999.00
2019-03-21T21:58:57.278Z,102003.00
2019-03-21T22:01:26.408Z,102002.00
2019-03-21T22:04:04.674Z,102004.00
2019-03-21T22:06:28.573Z,102001.00
2019-03-21T22:08:58.777Z,101995.00
2019-03-21T22:11:28.895Z,102006.00
2019-03-21T22:13:57.866Z,101999.00
2019-03-21T22:16:27.092Z,102001.00
2019-03-21T22:18:56.020Z,101997.00
2019-03-21T22:21:26.027Z,102002.00
2019-03-21T22:23:57.058Z,102006.00
2019-03-21T22:26:29.759Z,102007.00
2019-03-21T22:28:58.670Z,102006.00
2019-03-21T22:31:30.122Z,102000.00
2019-03-21T22:33:59.198Z,102005.00
2019-03-21T22:36:29.653Z,102006.00
2019-03-21T22:38:59.537Z,102001.00
2019-03-21T22:41:29.016Z,101999.00
2019-03-21T22:43:59.043Z,102002.00
2019-03-21T22:46:28.484Z,101993.00
2019-03-21T22:48:57.401Z,101995.00
2019-03-21T22:51:27.681Z,102005.00
2019-03-21T22:53:56.592Z,101995.00
2019-03-21T22:56:25.490Z,101997.00
2019-03-21T22:58:54.321Z,102003.00
2019-03-21T23:01:23.205Z,101994.00
2019-03-21T23:03:52.010Z,101993.00
2019-03-21T23:06:20.944Z,101991.00
2019-03-21T23:08:49.820Z,101982.00
2019-03-21T23:11:18.856Z,101984.00
2019-03-21T23:13:49.647Z,101980.00
2019-03-21T23:16:18.640Z,101991.00
2019-03-21T23:18:47.502Z,101997.00
2019-03-21T23:21:16.463Z,101998.00
2019-03-21T23:23:45.384Z,101997.00
2019-03-21T23:26:14.202Z,101995.00
2019-03-21T23:28:43.023Z,101994.00
2019-03-21T23:31:12.015Z,101995.00
2019-03-21T23:33:40.850Z,101990.00
2019-03-21T23:36:09.674Z,101999.00
2019-03-21T23:38:38.581Z,101993.00
2019-03-21T23:41:07.468Z,101996.00
2019-03-21T23:43:36.570Z,101992.00
2019-03-21T23:46:05.524Z,101999.00
2019-03-21T23:48:34.685Z,101999.00
2019-03-21T23:51:03.896Z,101992.00
2019-03-21T23:53:32.658Z,101989.00
2019-03-21T23:56:01.526Z,101981.00
2019-03-21T23:58:30.370Z,101982.00
